Buoy 41607

sailwx.info

Track history (hours):
 
Tides and Currents Weather Stations Pressure Air Temp Water Temp Dewpoint Dewpoint Depression Visibility Wind Speed Wind Dir Waves Ship Positions

Drifting buoy 41607

Last reported at 2014-Dec-18 01:00 UTC. Time now 2014-Dec-18 07:25 UTC.
Position N 26°23' W 053°54'.

Water temperature 25.5 ° C

Date/timePositionNaut miles runAvg speedWind from/ knotsBaromVisibWave heightAir tempDewpointWater temp
2014-Dec-18 01:00N 26°23' W 053°54'0 0.1 25.5
2014-Dec-18 00:00N 26°23' W 053°54'1 1.0 25.5
2014-Dec-17 23:00N 26°23' W 053°53'1 0.3 25.5
2014-Dec-17 21:00N 26°22' W 053°53'1 0.7 25.5
2014-Dec-17 19:00N 26°21' W 053°52'1 0.4 25.5
2014-Dec-17 17:00N 26°21' W 053°52'2 2.0 25.6
2014-Dec-17 16:00N 26°20' W 053°50'0 0.0 25.5
2014-Dec-17 14:00N 26°20' W 053°50'0 0.2 25.5
2014-Dec-17 13:00N 26°20' W 053°50'2 2.3 25.5
2014-Dec-17 12:00N 26°18' W 053°48'0 0.0 25.5
2014-Dec-17 10:00N 26°18' W 053°48'0 0.5 25.5
2014-Dec-17 09:00N 26°18' W 053°48'2 1.9 25.5
2014-Dec-17 08:00N 26°16' W 053°47'0 0.0 25.5
2014-Dec-17 06:00N 26°16' W 053°47'3 0.7 25.5
2014-Dec-17 01:00N 26°14' W 053°44'0 0.0 25.6
2014-Dec-17 00:00N 26°14' W 053°44'1 0.4 25.6
2014-Dec-16 22:00N 26°14' W 053°43'0 0.4 25.6
2014-Dec-16 21:00N 26°13' W 053°44'1 0.5 25.7
2014-Dec-16 20:00N 26°13' W 053°44'2 1.1 25.8
2014-Dec-16 18:00N 26°11' W 053°45'6 0.3 25.8
2014-Dec-15 23:00N 26°08' W 053°39'0 0.0 25.7
2014-Dec-15 22:00N 26°08' W 053°39'1 0.8 25.7
2014-Dec-15 21:00N 26°09' W 053°40'1 1.2 25.7
2014-Dec-15 20:00N 26°08' W 053°41'0 0.0 25.7
2014-Dec-15 18:00N 26°08' W 053°41'0 0.0 25.7
2014-Dec-15 17:00N 26°08' W 053°41'0 0.0 25.7
2014-Dec-15 16:00N 26°08' W 053°41'1 0.7 25.7
2014-Dec-15 14:00N 26°07' W 053°40'2 2.5 25.7
2014-Dec-15 13:00N 26°05' W 053°40'0 0.0 25.7
2014-Dec-15 11:00N 26°05' W 053°40'0 0.0 25.7
2014-Dec-15 10:00N 26°05' W 053°40'0 0.0 25.7
2014-Dec-15 09:00N 26°05' W 053°40'1 1.2 25.8
2014-Dec-15 08:00N 26°04' W 053°38'2 1.0 25.7
2014-Dec-15 06:00N 26°02' W 053°37'0 0.0 25.8
2014-Dec-15 02:00N 26°02' W 053°37'1 0.5 25.8
2014-Dec-15 01:00N 26°02' W 053°38'0 0.0 25.8
2014-Dec-15 00:00N 26°02' W 053°38'1 0.5 25.8
2014-Dec-14 23:00N 26°02' W 053°37'0 0.0 25.8
2014-Dec-14 22:00N 26°02' W 053°37'1 0.5 25.8
2014-Dec-14 21:00N 26°02' W 053°37'0 0.0 25.8
2014-Dec-14 20:00N 26°02' W 053°37'0 0.0 25.8
2014-Dec-14 19:00N 26°02' W 053°37'1 1.3 25.8
2014-Dec-14 18:00N 26°01' W 053°37'0 0.0 25.9
2014-Dec-14 17:00N 26°01' W 053°37'1 0.5 25.9
2014-Dec-14 16:00N 26°01' W 053°38'1 1.2 25.9
2014-Dec-14 15:00N 26°00' W 053°38'0 0.0 25.9
2014-Dec-14 14:00N 26°00' W 053°38'1 0.6 25.9
2014-Dec-14 12:00N 25°59' W 053°39'0 0.0 25.8
2014-Dec-14 11:00N 25°59' W 053°39'0 0.0 25.8
2014-Dec-14 10:00N 25°59' W 053°39'0 0.0 25.8
2014-Dec-14 09:00N 25°59' W 053°39'2 0.2 25.8
2014-Dec-14 01:00N 25°60' W 053°37'0 0.3 25.9
2014-Dec-14 00:00N 25°60' W 053°37'0 0.0 25.9
2014-Dec-13 23:00N 25°60' W 053°37'5 0.2 25.9
2014-Dec-12 21:00N 26°05' W 053°39'0 0.0 25.9
2014-Dec-12 20:00N 26°05' W 053°39'1 0.6 25.9
2014-Dec-12 19:00N 26°05' W 053°38'0 0.0 25.9
2014-Dec-12 18:00N 26°05' W 053°38'3 0.3 25.9
2014-Dec-12 08:00N 26°03' W 053°40'3 0.4 25.8
2014-Dec-11 23:00N 26°02' W 053°37'1 0.4 26.1
2014-Dec-11 21:00N 26°02' W 053°36'3 1.4 26.2
2014-Dec-11 19:00N 26°03' W 053°34'0 0.0 26.2
2014-Dec-11 17:00N 26°03' W 053°34'1 0.5 26.2
2014-Dec-11 15:00N 26°03' W 053°33'0 0.0 26.1
2014-Dec-11 14:00N 26°03' W 053°33'1 0.4 26.0
2014-Dec-11 12:00N 26°03' W 053°32'0 0.0 25.9
2014-Dec-11 10:00N 26°03' W 053°32'0 0.3 25.9
2014-Dec-11 09:00N 26°03' W 053°32'1 0.2 25.9
2014-Dec-11 05:00N 26°03' W 053°31'1 0.3 25.9
2014-Dec-11 01:00N 26°02' W 053°30'3 2.6 25.9
2014-Dec-11 00:00N 26°01' W 053°27'0 0.0 26.0
2014-Dec-10 23:00N 26°01' W 053°27'0 0.0 26.0
2014-Dec-10 21:00N 26°01' W 053°27'0 0.0 26.0
2014-Dec-10 20:00N 26°01' W 053°27'0 0.0 26.0
2014-Dec-10 19:00N 26°01' W 053°27'1 1.1 26.0
2014-Dec-10 18:00N 26°01' W 053°26'1 1.3 26.1
2014-Dec-10 17:00N 26°01' W 053°25'2 0.6 26.1
2014-Dec-10 14:00N 26°01' W 053°23'3 1.6 26.0
2014-Dec-10 12:00N 26°01' W 053°19'0 0.0 25.9
2014-Dec-10 11:00N 26°01' W 053°19'0 0.0 25.9
2014-Dec-10 09:00N 26°01' W 053°19'1 0.5 25.9
2014-Dec-10 06:00N 26°02' W 053°18'1 0.8 25.9
2014-Dec-10 05:00N 26°02' W 053°17'0 0.0 25.9
2014-Dec-10 04:00N 26°02' W 053°17'5 0.8 26.0
2014-Dec-09 22:00N 26°00' W 053°13'0 0.0 26.1
2014-Dec-09 21:00N 26°00' W 053°13'0 0.0 26.2
2014-Dec-09 20:00N 26°00' W 053°13'1 1.5 26.4
2014-Dec-09 19:00N 26°00' W 053°11'1 0.4 26.5
2014-Dec-09 17:00N 25°59' W 053°10'0 0.0 26.8
2014-Dec-09 16:00N 25°59' W 053°10'3 1.5 26.8
2014-Dec-09 14:00N 25°60' W 053°07'0 0.0 26.2
2014-Dec-09 12:00N 25°60' W 053°07'0 0.0 25.9
2014-Dec-09 11:00N 25°60' W 053°07'0 0.1 25.9
2014-Dec-09 09:00N 25°60' W 053°07'0 0.3 25.9
2014-Dec-09 08:00N 25°60' W 053°07'0 0.0 26.0
2014-Dec-09 06:00N 25°60' W 053°07'2 0.4 26.0
2014-Dec-09 00:00N 25°58' W 053°05'3 0.5 26.1
2014-Dec-08 18:00N 25°58' W 053°02'0 0.0 26.1
2014-Dec-08 17:00N 25°58' W 053°02'2 2.2 26.0
2014-Dec-08 16:00N 25°58' W 052°59'0 0.1 26.0
2014-Dec-08 13:00N 25°58' W 052°59'4 1.3 25.9
2014-Dec-08 10:00N 25°59' W 052°55'1 0.4 25.9
2014-Dec-08 08:00N 26°00' W 052°55'2 1.2 25.9
2014-Dec-08 06:00N 25°59' W 052°53'2 0.3 25.9
2014-Dec-08 01:00N 25°58' W 052°51'   25.9
Track history (hours):
 
Tides and Currents Weather Stations Pressure Air Temp Water Temp Dewpoint Dewpoint Depression Visibility Wind Speed Wind Dir Waves Ship Positions

Drifting buoy 41607

Last reported at 2014-Dec-18 01:00 UTC. Time now 2014-Dec-18 07:25 UTC.
Position N 26°23' W 053°54'.

Water temperature 25.5 ° C

Date/timePositionNaut miles runAvg speedWind from/ knotsBaromVisibWave heightAir tempDewpointWater temp
2014-Dec-18 01:00N 26°23' W 053°54'0 0.1 25.5
2014-Dec-18 00:00N 26°23' W 053°54'1 1.0 25.5
2014-Dec-17 23:00N 26°23' W 053°53'1 0.3 25.5
2014-Dec-17 21:00N 26°22' W 053°53'1 0.7 25.5
2014-Dec-17 19:00N 26°21' W 053°52'1 0.4 25.5
2014-Dec-17 17:00N 26°21' W 053°52'2 2.0 25.6
2014-Dec-17 16:00N 26°20' W 053°50'0 0.0 25.5
2014-Dec-17 14:00N 26°20' W 053°50'0 0.2 25.5
2014-Dec-17 13:00N 26°20' W 053°50'2 2.3 25.5
2014-Dec-17 12:00N 26°18' W 053°48'0 0.0 25.5
2014-Dec-17 10:00N 26°18' W 053°48'0 0.5 25.5
2014-Dec-17 09:00N 26°18' W 053°48'2 1.9 25.5
2014-Dec-17 08:00N 26°16' W 053°47'0 0.0 25.5
2014-Dec-17 06:00N 26°16' W 053°47'3 0.7 25.5
2014-Dec-17 01:00N 26°14' W 053°44'0 0.0 25.6
2014-Dec-17 00:00N 26°14' W 053°44'1 0.4 25.6
2014-Dec-16 22:00N 26°14' W 053°43'0 0.4 25.6
2014-Dec-16 21:00N 26°13' W 053°44'1 0.5 25.7
2014-Dec-16 20:00N 26°13' W 053°44'2 1.1 25.8
2014-Dec-16 18:00N 26°11' W 053°45'6 0.3 25.8
2014-Dec-15 23:00N 26°08' W 053°39'0 0.0 25.7
2014-Dec-15 22:00N 26°08' W 053°39'1 0.8 25.7
2014-Dec-15 21:00N 26°09' W 053°40'1 1.2 25.7
2014-Dec-15 20:00N 26°08' W 053°41'0 0.0 25.7
2014-Dec-15 18:00N 26°08' W 053°41'0 0.0 25.7
2014-Dec-15 17:00N 26°08' W 053°41'0 0.0 25.7
2014-Dec-15 16:00N 26°08' W 053°41'1 0.7 25.7
2014-Dec-15 14:00N 26°07' W 053°40'2 2.5 25.7
2014-Dec-15 13:00N 26°05' W 053°40'0 0.0 25.7
2014-Dec-15 11:00N 26°05' W 053°40'0 0.0 25.7
2014-Dec-15 10:00N 26°05' W 053°40'0 0.0 25.7
2014-Dec-15 09:00N 26°05' W 053°40'1 1.2 25.8
2014-Dec-15 08:00N 26°04' W 053°38'2 1.0 25.7
2014-Dec-15 06:00N 26°02' W 053°37'0 0.0 25.8
2014-Dec-15 02:00N 26°02' W 053°37'1 0.5 25.8
2014-Dec-15 01:00N 26°02' W 053°38'0 0.0 25.8
2014-Dec-15 00:00N 26°02' W 053°38'1 0.5 25.8
2014-Dec-14 23:00N 26°02' W 053°37'0 0.0 25.8
2014-Dec-14 22:00N 26°02' W 053°37'1 0.5 25.8
2014-Dec-14 21:00N 26°02' W 053°37'0 0.0 25.8
2014-Dec-14 20:00N 26°02' W 053°37'0 0.0 25.8
2014-Dec-14 19:00N 26°02' W 053°37'1 1.3 25.8
2014-Dec-14 18:00N 26°01' W 053°37'0 0.0 25.9
2014-Dec-14 17:00N 26°01' W 053°37'1 0.5 25.9
2014-Dec-14 16:00N 26°01' W 053°38'1 1.2 25.9
2014-Dec-14 15:00N 26°00' W 053°38'0 0.0 25.9
2014-Dec-14 14:00N 26°00' W 053°38'1 0.6 25.9
2014-Dec-14 12:00N 25°59' W 053°39'0 0.0 25.8
2014-Dec-14 11:00N 25°59' W 053°39'0 0.0 25.8
2014-Dec-14 10:00N 25°59' W 053°39'0 0.0 25.8
2014-Dec-14 09:00N 25°59' W 053°39'2 0.2 25.8
2014-Dec-14 01:00N 25°60' W 053°37'0 0.3 25.9
2014-Dec-14 00:00N 25°60' W 053°37'0 0.0 25.9
2014-Dec-13 23:00N 25°60' W 053°37'5 0.2 25.9
2014-Dec-12 21:00N 26°05' W 053°39'0 0.0 25.9
2014-Dec-12 20:00N 26°05' W 053°39'1 0.6 25.9
2014-Dec-12 19:00N 26°05' W 053°38'0 0.0 25.9
2014-Dec-12 18:00N 26°05' W 053°38'3 0.3 25.9
2014-Dec-12 08:00N 26°03' W 053°40'3 0.4 25.8
2014-Dec-11 23:00N 26°02' W 053°37'1 0.4 26.1
2014-Dec-11 21:00N 26°02' W 053°36'3 1.4 26.2
2014-Dec-11 19:00N 26°03' W 053°34'0 0.0 26.2
2014-Dec-11 17:00N 26°03' W 053°34'1 0.5 26.2
2014-Dec-11 15:00N 26°03' W 053°33'0 0.0 26.1
2014-Dec-11 14:00N 26°03' W 053°33'1 0.4 26.0
2014-Dec-11 12:00N 26°03' W 053°32'0 0.0 25.9
2014-Dec-11 10:00N 26°03' W 053°32'0 0.3 25.9
2014-Dec-11 09:00N 26°03' W 053°32'1 0.2 25.9
2014-Dec-11 05:00N 26°03' W 053°31'1 0.3 25.9
2014-Dec-11 01:00N 26°02' W 053°30'3 2.6 25.9
2014-Dec-11 00:00N 26°01' W 053°27'0 0.0 26.0
2014-Dec-10 23:00N 26°01' W 053°27'0 0.0 26.0
2014-Dec-10 21:00N 26°01' W 053°27'0 0.0 26.0
2014-Dec-10 20:00N 26°01' W 053°27'0 0.0 26.0
2014-Dec-10 19:00N 26°01' W 053°27'1 1.1 26.0
2014-Dec-10 18:00N 26°01' W 053°26'1 1.3 26.1
2014-Dec-10 17:00N 26°01' W 053°25'2 0.6 26.1
2014-Dec-10 14:00N 26°01' W 053°23'3 1.6 26.0
2014-Dec-10 12:00N 26°01' W 053°19'0 0.0 25.9
2014-Dec-10 11:00N 26°01' W 053°19'0 0.0 25.9
2014-Dec-10 09:00N 26°01' W 053°19'1 0.5 25.9
2014-Dec-10 06:00N 26°02' W 053°18'1 0.8 25.9
2014-Dec-10 05:00N 26°02' W 053°17'0 0.0 25.9
2014-Dec-10 04:00N 26°02' W 053°17'5 0.8 26.0
2014-Dec-09 22:00N 26°00' W 053°13'0 0.0 26.1
2014-Dec-09 21:00N 26°00' W 053°13'0 0.0 26.2
2014-Dec-09 20:00N 26°00' W 053°13'1 1.5 26.4
2014-Dec-09 19:00N 26°00' W 053°11'1 0.4 26.5
2014-Dec-09 17:00N 25°59' W 053°10'0 0.0 26.8
2014-Dec-09 16:00N 25°59' W 053°10'3 1.5 26.8
2014-Dec-09 14:00N 25°60' W 053°07'0 0.0 26.2
2014-Dec-09 12:00N 25°60' W 053°07'0 0.0 25.9
2014-Dec-09 11:00N 25°60' W 053°07'0 0.1 25.9
2014-Dec-09 09:00N 25°60' W 053°07'0 0.3 25.9
2014-Dec-09 08:00N 25°60' W 053°07'0 0.0 26.0
2014-Dec-09 06:00N 25°60' W 053°07'2 0.4 26.0
2014-Dec-09 00:00N 25°58' W 053°05'3 0.5 26.1
2014-Dec-08 18:00N 25°58' W 053°02'0 0.0 26.1
2014-Dec-08 17:00N 25°58' W 053°02'2 2.2 26.0
2014-Dec-08 16:00N 25°58' W 052°59'0 0.1 26.0
2014-Dec-08 13:00N 25°58' W 052°59'4 1.3 25.9
2014-Dec-08 10:00N 25°59' W 052°55'1 0.4 25.9
2014-Dec-08 08:00N 26°00' W 052°55'2 1.2 25.9
2014-Dec-08 06:00N 25°59' W 052°53'2 0.3 25.9
2014-Dec-08 01:00N 25°58' W 052°51'   25.9

Dump ship's entire track history